createdAt,value
2023-04-13T00:00:38.588Z,72.91
2023-04-13T00:01:38.674Z,72.93
2023-04-13T00:02:38.875Z,72.91
2023-04-13T00:03:38.893Z,73.13
2023-04-13T00:04:38.865Z,73.75
2023-04-13T00:05:38.930Z,73.17
2023-04-13T00:06:38.987Z,72.60
2023-04-13T00:07:38.993Z,72.67
2023-04-13T00:08:39.046Z,72.48
2023-04-13T00:09:39.118Z,71.93
2023-04-13T00:10:39.135Z,71.71
2023-04-13T00:11:39.190Z,71.48
2023-04-13T00:12:39.188Z,71.37
2023-04-13T00:13:39.255Z,71.66
2023-04-13T00:14:39.279Z,71.76
2023-04-13T00:15:39.312Z,71.63
2023-04-13T00:16:39.414Z,71.42
2023-04-13T00:17:39.481Z,71.62
2023-04-13T00:18:39.482Z,71.68
2023-04-13T00:19:39.599Z,71.89
2023-04-13T00:20:39.651Z,71.95
2023-04-13T00:21:39.697Z,72.03
2023-04-13T00:22:39.735Z,71.98
2023-04-13T00:23:39.782Z,71.93
2023-04-13T00:24:39.867Z,71.90
2023-04-13T00:25:39.920Z,71.97
2023-04-13T00:26:39.994Z,71.94
2023-04-13T00:27:40.105Z,71.90
2023-04-13T00:28:40.159Z,71.80
2023-04-13T00:29:40.309Z,71.79
2023-04-13T00:30:40.418Z,71.69
2023-04-13T00:31:40.423Z,71.46
2023-04-13T00:32:40.497Z,71.32
2023-04-13T00:33:40.549Z,71.13
2023-04-13T00:34:40.627Z,70.74
2023-04-13T00:35:40.685Z,70.67
2023-04-13T00:36:40.767Z,71.01
2023-04-13T00:37:40.824Z,71.27
2023-04-13T00:38:42.643Z,71.43
2023-04-13T00:39:40.914Z,71.43
2023-04-13T00:40:40.946Z,71.35
2023-04-13T00:41:40.965Z,71.22
2023-04-13T00:42:40.962Z,71.40
2023-04-13T00:43:40.993Z,71.49
2023-04-13T00:44:40.995Z,71.72
2023-04-13T00:45:41.060Z,71.94
2023-04-13T00:46:41.098Z,72.05
2023-04-13T00:47:41.086Z,71.99
2023-04-13T00:48:41.079Z,72.25
2023-04-13T00:49:41.111Z,72.63
2023-04-13T00:50:41.122Z,73.06
2023-04-13T00:51:41.167Z,73.60
2023-04-13T00:52:41.242Z,73.90
2023-04-13T00:53:41.233Z,74.22
2023-04-13T00:54:41.297Z,74.17
2023-04-13T00:55:41.287Z,74.50
2023-04-13T00:56:41.318Z,74.89
2023-04-13T00:57:41.354Z,74.44
2023-04-13T00:58:41.391Z,74.79
2023-04-13T00:59:41.491Z,74.60
2023-04-13T01:00:41.466Z,74.93
2023-04-13T01:01:41.601Z,74.99
2023-04-13T01:02:41.779Z,75.10
2023-04-13T01:03:41.637Z,75.18
2023-04-13T01:04:41.700Z,75.31
2023-04-13T01:05:41.653Z,75.13
2023-04-13T01:06:41.684Z,75.01
2023-04-13T01:07:41.732Z,74.83
2023-04-13T01:08:41.751Z,74.80
2023-04-13T01:09:41.753Z,74.88
2023-04-13T01:10:41.766Z,74.85
2023-04-13T01:11:41.785Z,74.60
2023-04-13T01:12:41.821Z,74.19
2023-04-13T01:13:41.869Z,74.17
2023-04-13T01:14:41.866Z,74.12
2023-04-13T01:15:41.928Z,73.85
2023-04-13T01:16:41.915Z,74.04
2023-04-13T01:17:41.937Z,74.00
2023-04-13T01:18:41.954Z,73.99
2023-04-13T01:19:41.982Z,73.90
2023-04-13T01:20:41.085Z,73.47
2023-04-13T01:21:42.078Z,73.20
2023-04-13T01:22:42.114Z,73.36
2023-04-13T01:23:42.151Z,73.03
2023-04-13T01:24:42.184Z,73.40
2023-04-13T01:25:42.275Z,73.52
2023-04-13T01:26:42.348Z,73.77
2023-04-13T01:27:42.431Z,74.01
2023-04-13T01:28:42.495Z,74.08
2023-04-13T01:29:42.585Z,73.30
2023-04-13T01:30:42.626Z,72.07
2023-04-13T01:31:42.750Z,70.96
2023-04-13T01:32:42.730Z,69.03
2023-04-13T01:33:42.810Z,69.19
2023-04-13T01:34:42.843Z,70.04
2023-04-13T01:35:42.917Z,72.72
2023-04-13T01:36:42.993Z,73.36
2023-04-13T01:37:43.084Z,73.50
2023-04-13T01:38:43.289Z,73.63
2023-04-13T01:39:43.287Z,73.75
2023-04-13T01:40:43.395Z,73.93
2023-04-13T01:41:43.497Z,73.83
2023-04-13T01:42:43.615Z,74.08
2023-04-13T01:43:43.726Z,74.23
2023-04-13T01:44:43.818Z,74.57
2023-04-13T01:45:43.929Z,74.77
2023-04-13T01:46:44.049Z,74.64
2023-04-13T01:47:44.112Z,74.53
2023-04-13T01:48:44.271Z,74.89
2023-04-13T01:49:44.327Z,74.97
2023-04-13T01:50:44.476Z,75.11
2023-04-13T01:51:44.567Z,75.70
2023-04-13T01:52:44.700Z,75.91
2023-04-13T01:53:44.793Z,75.82
2023-04-13T01:54:44.871Z,75.92
2023-04-13T01:55:45.019Z,74.96
2023-04-13T01:56:45.074Z,75.27
2023-04-13T01:57:45.165Z,75.14
2023-04-13T01:58:45.323Z,75.16
2023-04-13T01:59:45.342Z,74.89
2023-04-13T02:00:45.466Z,73.48
2023-04-13T02:01:45.546Z,69.42
2023-04-13T02:02:46.004Z,69.29
2023-04-13T02:03:45.762Z,72.28
2023-04-13T02:04:45.716Z,70.44
2023-04-13T02:05:45.793Z,66.93
2023-04-13T02:06:45.881Z,66.17
2023-04-13T02:07:45.964Z,65.46
2023-04-13T02:08:46.024Z,65.38
2023-04-13T02:09:46.115Z,65.99
2023-04-13T02:10:46.188Z,66.02
2023-04-13T02:11:46.261Z,63.97
2023-04-13T02:12:46.340Z,63.58
2023-04-13T02:13:46.428Z,63.49
2023-04-13T02:14:46.558Z,63.05
2023-04-13T02:15:46.598Z,64.61
2023-04-13T02:16:46.810Z,65.02
2023-04-13T02:17:46.807Z,63.71
2023-04-13T02:18:46.905Z,65.50
2023-04-13T02:19:47.008Z,66.13
2023-04-13T02:20:47.137Z,67.12
2023-04-13T02:21:47.309Z,66.35
2023-04-13T02:22:47.398Z,66.07
2023-04-13T02:23:47.545Z,66.01
2023-04-13T02:24:47.695Z,64.90
2023-04-13T02:25:48.353Z,65.13
2023-04-13T02:26:47.920Z,64.61
2023-04-13T02:27:48.028Z,64.36
2023-04-13T02:28:48.166Z,64.84
2023-04-13T02:29:48.314Z,65.32
2023-04-13T02:30:48.389Z,64.02
2023-04-13T02:31:48.562Z,64.25
2023-04-13T02:32:48.612Z,64.03
2023-04-13T02:33:48.734Z,63.57
2023-04-13T02:34:48.808Z,63.08
2023-04-13T02:35:49.005Z,63.39
2023-04-13T02:36:49.003Z,63.87
2023-04-13T02:37:49.066Z,64.70
2023-04-13T02:38:49.164Z,65.71
2023-04-13T02:39:49.277Z,64.18
2023-04-13T02:40:49.414Z,64.91
2023-04-13T02:41:49.445Z,65.15
2023-04-13T02:42:49.518Z,66.92
2023-04-13T02:43:49.669Z,68.54
2023-04-13T02:44:49.773Z,68.58
2023-04-13T02:45:49.967Z,67.05
2023-04-13T02:46:50.066Z,67.93
2023-04-13T02:47:50.237Z,67.97
2023-04-13T02:48:50.364Z,66.83
2023-04-13T02:49:50.557Z,66.82
2023-04-13T02:50:50.685Z,67.16
2023-04-13T02:51:50.812Z,66.28
2023-04-13T02:52:50.940Z,66.51
2023-04-13T02:53:51.050Z,66.10
2023-04-13T02:54:51.128Z,65.79
2023-04-13T02:55:51.210Z,65.94
2023-04-13T02:56:51.288Z,64.40
2023-04-13T02:57:51.358Z,64.15
2023-04-13T02:58:51.447Z,64.27
2023-04-13T02:59:51.530Z,65.11
2023-04-13T03:00:51.652Z,65.01
2023-04-13T03:01:51.860Z,65.73
2023-04-13T03:02:51.964Z,64.48
2023-04-13T03:03:51.963Z,63.99
2023-04-13T03:04:52.105Z,62.68
2023-04-13T03:05:52.256Z,63.09
2023-04-13T03:06:52.302Z,62.69
2023-04-13T03:07:52.405Z,62.90
2023-04-13T03:08:53.478Z,63.36
2023-04-13T03:09:52.626Z,63.98
2023-04-13T03:10:52.712Z,63.94
2023-04-13T03:11:52.786Z,64.45
2023-04-13T03:12:52.882Z,66.87
2023-04-13T03:13:53.007Z,65.85
2023-04-13T03:14:53.094Z,64.35
2023-04-13T03:15:53.212Z,62.64
2023-04-13T03:16:53.355Z,63.08
2023-04-13T03:17:53.467Z,64.07
2023-04-13T03:18:53.514Z,65.17
2023-04-13T03:19:53.612Z,64.16
2023-04-13T03:20:53.734Z,63.97
2023-04-13T03:21:53.889Z,64.27
2023-04-13T03:22:53.961Z,64.41
2023-04-13T03:23:54.062Z,66.13
2023-04-13T03:24:54.179Z,66.80
2023-04-13T03:25:54.296Z,66.66
2023-04-13T03:26:54.401Z,65.38
2023-04-13T03:27:54.538Z,64.19
2023-04-13T03:28:54.656Z,63.96
2023-04-13T03:29:54.758Z,65.00
2023-04-13T03:30:54.924Z,65.83
2023-04-13T03:31:55.037Z,65.12
2023-04-13T03:32:55.204Z,64.71
2023-04-13T03:33:55.256Z,64.83
2023-04-13T03:34:55.375Z,65.62
2023-04-13T03:35:55.556Z,65.49
2023-04-13T03:36:55.682Z,65.39
2023-04-13T03:37:55.751Z,65.52
2023-04-13T03:38:55.882Z,66.04
2023-04-13T03:39:56.012Z,66.25
2023-04-13T03:40:56.167Z,66.11
2023-04-13T03:41:56.282Z,65.94
2023-04-13T03:42:56.396Z,65.68
2023-04-13T03:43:56.911Z,64.90
2023-04-13T03:44:56.590Z,65.01
2023-04-13T03:45:56.769Z,64.97
2023-04-13T03:46:56.785Z,65.07
2023-04-13T03:47:56.942Z,65.85
2023-04-13T03:48:57.016Z,66.16
2023-04-13T03:49:57.115Z,65.74
2023-04-13T03:50:57.275Z,66.23
2023-04-13T03:51:57.311Z,65.19
2023-04-13T03:52:57.456Z,65.45
2023-04-13T03:53:57.761Z,64.91
2023-04-13T03:54:57.718Z,64.76
2023-04-13T03:55:57.727Z,64.99
2023-04-13T03:56:57.821Z,65.19
2023-04-13T03:57:57.944Z,65.77
2023-04-13T03:58:58.052Z,65.05
2023-04-13T03:59:58.128Z,64.50
2023-04-13T04:00:58.254Z,64.37
2023-04-13T04:01:58.410Z,64.67
2023-04-13T04:02:58.553Z,65.17
2023-04-13T04:03:58.936Z,65.96
2023-04-13T04:04:58.802Z,66.45
2023-04-13T04:05:58.881Z,67.23
2023-04-13T04:06:59.004Z,66.86
2023-04-13T04:07:59.144Z,67.07
2023-04-13T04:08:59.263Z,66.30
2023-04-13T04:09:59.328Z,65.96
2023-04-13T04:10:59.409Z,66.70
2023-04-13T04:11:59.483Z,66.95
2023-04-13T04:12:59.595Z,66.48
2023-04-13T04:13:59.859Z,67.35
2023-04-13T04:14:59.835Z,68.16
2023-04-13T04:15:59.997Z,68.16
2023-04-13T04:17:00.051Z,66.96
2023-04-13T04:18:00.276Z,66.74
2023-04-13T04:19:00.241Z,67.31
2023-04-13T04:20:00.353Z,67.84
2023-04-13T04:21:00.472Z,68.59
2023-04-13T04:22:00.576Z,69.90
2023-04-13T04:23:00.690Z,69.42
2023-04-13T04:24:00.869Z,69.39
2023-04-13T04:25:01.022Z,69.98
2023-04-13T04:26:01.023Z,70.06
2023-04-13T04:27:01.122Z,70.39
2023-04-13T04:28:01.224Z,69.91
2023-04-13T04:29:01.312Z,69.30
2023-04-13T04:30:01.393Z,68.39
2023-04-13T04:31:01.485Z,68.08
2023-04-13T04:32:01.651Z,67.30
2023-04-13T04:33:01.673Z,67.32
2023-04-13T04:34:01.705Z,67.86
2023-04-13T04:35:01.774Z,68.30
2023-04-13T04:36:01.995Z,69.00
2023-04-13T04:37:03.478Z,69.33
2023-04-13T04:38:01.976Z,69.72
2023-04-13T04:39:02.220Z,70.13
2023-04-13T04:40:02.105Z,70.21
2023-04-13T04:41:02.276Z,69.19
2023-04-13T04:42:02.250Z,68.85
2023-04-13T04:43:02.278Z,69.28
2023-04-13T04:44:02.371Z,69.95
2023-04-13T04:45:02.428Z,69.90
2023-04-13T04:46:02.583Z,70.05
2023-04-13T04:47:02.584Z,70.07
2023-04-13T04:48:02.780Z,70.23
2023-04-13T04:49:02.763Z,70.68
2023-04-13T04:50:02.849Z,70.49
2023-04-13T04:51:02.933Z,70.37
2023-04-13T04:52:03.010Z,70.72
2023-04-13T04:53:03.071Z,70.78
2023-04-13T04:54:03.137Z,70.56
2023-04-13T04:55:03.263Z,70.96
2023-04-13T04:56:03.345Z,71.18
2023-04-13T04:57:03.465Z,70.54
2023-04-13T04:58:03.554Z,70.31
2023-04-13T04:59:03.666Z,70.01
2023-04-13T05:00:03.741Z,69.51
2023-04-13T05:01:03.918Z,69.41
2023-04-13T05:02:04.034Z,69.49
2023-04-13T05:03:04.105Z,69.58
2023-04-13T05:04:04.179Z,70.03
2023-04-13T05:05:04.288Z,70.49
2023-04-13T05:06:04.404Z,70.42
2023-04-13T05:07:04.506Z,70.65
2023-04-13T05:08:04.606Z,70.57
2023-04-13T05:09:04.737Z,70.09
2023-04-13T05:10:04.828Z,70.40
2023-04-13T05:11:04.943Z,70.81
2023-04-13T05:12:05.099Z,70.88
2023-04-13T05:13:05.202Z,70.33
2023-04-13T05:14:05.335Z,70.49
2023-04-13T05:15:05.443Z,70.63
2023-04-13T05:16:05.580Z,71.00
2023-04-13T05:17:05.639Z,70.73
2023-04-13T05:18:05.790Z,71.46
2023-04-13T05:19:05.823Z,72.08
2023-04-13T05:20:05.973Z,71.21
2023-04-13T05:21:06.097Z,71.16
2023-04-13T05:22:06.200Z,71.41
2023-04-13T05:23:06.293Z,71.42
2023-04-13T05:24:06.384Z,71.58
2023-04-13T05:25:06.869Z,71.85
2023-04-13T05:26:07.716Z,71.70
2023-04-13T05:27:15.262Z,71.04
2023-04-13T05:28:10.643Z,70.90
2023-04-13T05:29:08.915Z,71.50
2023-04-13T05:30:07.317Z,71.09
2023-04-13T05:31:07.497Z,70.71
2023-04-13T05:32:07.594Z,70.58
2023-04-13T05:33:07.193Z,70.47
2023-04-13T05:34:08.723Z,70.88
2023-04-13T05:35:09.080Z,70.95
2023-04-13T05:36:08.216Z,71.38
2023-04-13T05:37:08.269Z,71.77
2023-04-13T05:38:09.073Z,71.33
2023-04-13T05:39:12.170Z,71.50
2023-04-13T05:40:08.157Z,70.84
2023-04-13T05:41:08.738Z,70.93
2023-04-13T05:42:08.304Z,71.22
2023-04-13T05:43:08.412Z,71.66
2023-04-13T05:44:09.128Z,71.23
2023-04-13T05:45:08.570Z,71.47
2023-04-13T05:46:08.766Z,71.20
2023-04-13T05:47:08.742Z,70.90
2023-04-13T05:48:09.126Z,70.65
2023-04-13T05:49:09.212Z,70.91
2023-04-13T05:50:11.183Z,71.35
2023-04-13T05:51:09.460Z,71.08
2023-04-13T05:52:11.099Z,71.01
2023-04-13T05:53:09.413Z,70.33
2023-04-13T05:54:09.403Z,70.26
2023-04-13T05:55:09.590Z,70.25
2023-04-13T05:56:09.542Z,70.62
2023-04-13T05:57:11.207Z,71.46
2023-04-13T05:58:09.877Z,71.97
2023-04-13T05:59:09.899Z,72.59
2023-04-13T06:00:10.552Z,71.91
2023-04-13T06:01:17.453Z,71.87
2023-04-13T06:02:10.275Z,71.04
2023-04-13T06:03:10.449Z,70.80
2023-04-13T06:04:27.104Z,70.92
2023-04-13T06:05:10.337Z,70.82
2023-04-13T06:06:17.843Z,70.03
2023-04-13T06:08:10.972Z,69.98
2023-04-13T06:09:18.257Z,70.82
2023-04-13T06:10:10.644Z,71.59
2023-04-13T06:11:19.347Z,72.02
2023-04-13T06:12:11.104Z,71.54
2023-04-13T06:13:10.864Z,71.25
2023-04-13T06:14:14.162Z,71.22
2023-04-13T06:15:11.076Z,70.82
2023-04-13T06:16:13.278Z,70.57
2023-04-13T06:17:12.335Z,70.34
2023-04-13T06:18:11.373Z,69.99
2023-04-13T06:19:11.197Z,69.13
2023-04-13T06:20:11.328Z,69.30
2023-04-13T06:21:10.362Z,69.50
2023-04-13T06:22:27.430Z,69.93
2023-04-13T06:23:11.481Z,70.41
2023-04-13T06:24:13.327Z,70.31
2023-04-13T06:25:11.599Z,70.06
2023-04-13T06:26:11.704Z,69.98
2023-04-13T06:27:12.534Z,70.13
2023-04-13T06:28:12.683Z,69.74
2023-04-13T06:29:10.801Z,69.86
2023-04-13T06:30:11.941Z,69.90
2023-04-13T06:31:13.819Z,70.26
2023-04-13T06:32:12.234Z,69.76
2023-04-13T06:33:12.308Z,69.11
2023-04-13T06:34:13.735Z,68.43
2023-04-13T06:35:12.921Z,68.82
2023-04-13T06:36:13.264Z,69.51
2023-04-13T06:37:12.572Z,69.95
2023-04-13T06:38:12.700Z,69.73
2023-04-13T06:39:12.789Z,70.45
2023-04-13T06:40:13.213Z,70.32
2023-04-13T06:41:12.988Z,70.74
2023-04-13T06:42:13.079Z,71.45
2023-04-13T06:43:26.249Z,70.55
2023-04-13T06:44:15.077Z,69.02
2023-04-13T06:45:13.341Z,69.16
2023-04-13T06:46:14.629Z,69.42
2023-04-13T06:47:13.751Z,70.54
2023-04-13T06:48:13.989Z,70.66
2023-04-13T06:49:14.243Z,70.74
2023-04-13T06:50:14.366Z,70.29
2023-04-13T06:51:13.919Z,70.07
2023-04-13T06:52:17.200Z,69.72
2023-04-13T06:53:14.238Z,69.89
2023-04-13T06:54:14.455Z,69.54
2023-04-13T06:55:14.220Z,69.56
2023-04-13T06:56:14.511Z,68.67
2023-04-13T06:57:14.749Z,68.68
2023-04-13T06:58:22.133Z,68.84
2023-04-13T06:59:14.557Z,68.98
2023-04-13T07:00:28.189Z,69.39
2023-04-13T07:01:14.758Z,69.79
2023-04-13T07:02:17.142Z,69.54
2023-04-13T07:03:15.994Z,69.05
2023-04-13T07:04:15.973Z,68.95
2023-04-13T07:05:15.218Z,69.37
2023-04-13T07:06:15.100Z,68.79
2023-04-13T07:07:15.266Z,69.04
2023-04-13T07:08:15.279Z,68.60
2023-04-13T07:09:15.407Z,68.72
2023-04-13T07:10:15.514Z,68.38
2023-04-13T07:11:15.695Z,68.45
2023-04-13T07:12:19.461Z,68.25
2023-04-13T07:13:16.080Z,68.23
2023-04-13T07:14:15.987Z,68.96
2023-04-13T07:15:17.232Z,68.76
2023-04-13T07:16:16.310Z,69.08
2023-04-13T07:17:16.360Z,69.40
2023-04-13T07:18:17.373Z,68.95
2023-04-13T07:19:16.842Z,68.79
2023-04-13T07:20:16.839Z,68.33
2023-04-13T07:21:16.833Z,68.91
2023-04-13T07:22:17.927Z,68.01
2023-04-13T07:23:16.891Z,68.07
2023-04-13T07:24:16.993Z,67.01
2023-04-13T07:25:17.225Z,66.26
2023-04-13T07:26:17.663Z,67.20
2023-04-13T07:27:22.434Z,66.38
2023-04-13T07:28:19.005Z,66.05
2023-04-13T07:29:17.908Z,66.61
2023-04-13T07:30:18.271Z,66.37
2023-04-13T07:31:19.625Z,66.21
2023-04-13T07:32:20.873Z,65.52
2023-04-13T07:33:17.943Z,65.12
2023-04-13T07:34:17.099Z,64.45
2023-04-13T07:35:19.087Z,64.98
2023-04-13T07:36:20.185Z,64.14
2023-04-13T07:37:27.240Z,63.97
2023-04-13T07:38:20.172Z,63.96
2023-04-13T07:39:21.210Z,63.37
2023-04-13T07:40:18.516Z,63.58
2023-04-13T07:41:24.909Z,63.11
2023-04-13T07:42:20.140Z,64.20
2023-04-13T07:43:20.769Z,64.35
2023-04-13T07:44:23.565Z,63.71
2023-04-13T07:45:20.924Z,63.71
2023-04-13T07:46:27.365Z,62.29
2023-04-13T07:47:25.978Z,62.64
2023-04-13T07:48:20.008Z,63.66
2023-04-13T07:49:19.005Z,64.23
2023-04-13T07:50:19.538Z,64.00
2023-04-13T07:51:24.386Z,65.14
2023-04-13T07:52:21.930Z,66.24
2023-04-13T07:53:19.489Z,67.39
2023-04-13T07:54:21.726Z,67.52
2023-04-13T07:55:19.994Z,67.37
2023-04-13T07:56:20.680Z,67.34
2023-04-13T07:57:27.975Z,68.04
2023-04-13T07:58:20.287Z,69.48
2023-04-13T07:59:22.510Z,68.81
2023-04-13T08:00:20.749Z,69.54
2023-04-13T08:01:21.524Z,69.54
2023-04-13T08:02:21.392Z,68.69
2023-04-13T08:03:20.438Z,67.99
2023-04-13T08:04:21.357Z,68.07
2023-04-13T08:05:22.403Z,68.01
2023-04-13T08:06:22.014Z,67.99
2023-04-13T08:07:21.622Z,67.15
2023-04-13T08:08:22.797Z,68.09
2023-04-13T08:09:22.336Z,68.65
2023-04-13T08:10:22.014Z,68.45
2023-04-13T08:11:22.807Z,67.83
2023-04-13T08:12:22.934Z,67.29
2023-04-13T08:13:26.566Z,66.49
2023-04-13T08:14:22.522Z,66.44
2023-04-13T08:15:22.571Z,66.55
2023-04-13T08:16:25.778Z,66.97
2023-04-13T08:17:24.017Z,66.26
2023-04-13T08:18:24.723Z,65.98
2023-04-13T08:19:23.717Z,66.30
2023-04-13T08:20:25.229Z,66.76
2023-04-13T08:21:23.019Z,66.19
2023-04-13T08:22:30.743Z,66.98
2023-04-13T08:23:24.380Z,66.86
2023-04-13T08:24:24.454Z,66.71
2023-04-13T08:25:31.319Z,66.00
2023-04-13T08:26:27.502Z,65.61
2023-04-13T08:27:23.884Z,66.75
2023-04-13T08:28:24.485Z,65.62
2023-04-13T08:29:26.412Z,67.29
2023-04-13T08:30:26.743Z,67.79
2023-04-13T08:31:24.705Z,66.70
2023-04-13T08:32:24.912Z,65.63
2023-04-13T08:33:24.479Z,66.17
2023-04-13T08:34:24.647Z,65.35
2023-04-13T08:35:24.731Z,64.64
2023-04-13T08:36:24.897Z,63.73
2023-04-13T08:37:25.351Z,63.89
2023-04-13T08:38:25.490Z,63.90
2023-04-13T08:39:25.004Z,63.00
2023-04-13T08:40:26.898Z,63.92
2023-04-13T08:41:25.194Z,63.84
2023-04-13T08:42:27.041Z,63.29
2023-04-13T08:43:25.359Z,63.43
2023-04-13T08:44:25.451Z,64.54
2023-04-13T08:45:25.551Z,64.25
2023-04-13T08:46:25.811Z,63.43
2023-04-13T08:47:26.577Z,64.78
2023-04-13T08:48:25.946Z,64.35
2023-04-13T08:49:25.891Z,64.15
2023-04-13T08:50:25.955Z,64.69
2023-04-13T08:51:26.030Z,64.69
2023-04-13T08:52:26.857Z,65.41
2023-04-13T08:53:26.246Z,65.01
2023-04-13T08:54:27.770Z,64.63
2023-04-13T08:55:26.415Z,64.66
2023-04-13T08:56:38.416Z,63.03
2023-04-13T08:57:27.011Z,63.61
2023-04-13T08:58:27.265Z,64.90
2023-04-13T08:59:26.754Z,63.86
2023-04-13T09:00:27.177Z,62.74
2023-04-13T09:01:31.588Z,63.37
2023-04-13T09:02:29.283Z,62.50
2023-04-13T09:03:27.502Z,62.97
2023-04-13T09:04:29.502Z,62.59
2023-04-13T09:05:29.145Z,61.68
2023-04-13T09:06:30.274Z,61.72
2023-04-13T09:07:32.350Z,61.55
2023-04-13T09:08:30.747Z,61.13
2023-04-13T09:09:32.872Z,61.60
2023-04-13T09:10:32.336Z,61.78
2023-04-13T09:11:29.925Z,61.19
2023-04-13T09:12:27.738Z,61.18
2023-04-13T09:13:27.714Z,61.22
2023-04-13T09:14:27.773Z,61.72
2023-04-13T09:15:31.612Z,60.62
2023-04-13T09:16:27.919Z,59.82
2023-04-13T09:17:29.417Z,60.38
2023-04-13T09:18:27.008Z,59.75
2023-04-13T09:19:28.125Z,59.46
2023-04-13T09:20:28.246Z,59.90
2023-04-13T09:21:28.173Z,59.49
2023-04-13T09:22:28.242Z,59.08
2023-04-13T09:23:28.797Z,60.14
2023-04-13T09:24:28.313Z,59.20
2023-04-13T09:25:28.381Z,58.55
2023-04-13T09:26:28.406Z,59.16
2023-04-13T09:27:28.765Z,58.29
2023-04-13T09:28:28.518Z,58.68
2023-04-13T09:29:28.564Z,58.87
2023-04-13T09:30:28.751Z,58.23
2023-04-13T09:31:29.087Z,58.71
2023-04-13T09:32:29.299Z,57.83
2023-04-13T09:33:31.824Z,58.12
2023-04-13T09:34:29.841Z,56.99
2023-04-13T09:35:31.151Z,56.37
2023-04-13T09:36:52.777Z,55.96
2023-04-13T09:37:59.501Z,54.15
2023-04-13T09:38:48.573Z,55.20
2023-04-13T09:39:49.025Z,53.95
2023-04-13T09:40:49.572Z,53.85
2023-04-13T09:41:49.535Z,53.59
2023-04-13T09:42:49.124Z,53.75
2023-04-13T09:43:50.989Z,53.46
2023-04-13T09:44:51.553Z,53.76
2023-04-13T09:45:48.685Z,52.45
2023-04-13T09:46:48.940Z,52.26
2023-04-13T09:47:49.039Z,51.71
2023-04-13T09:48:50.254Z,53.74
2023-04-13T09:49:48.609Z,54.62
2023-04-13T09:50:48.583Z,52.71
2023-04-13T09:51:48.723Z,54.36
2023-04-13T09:52:49.578Z,54.38
2023-04-13T09:53:48.506Z,54.28
2023-04-13T09:54:48.920Z,52.86
2023-04-13T09:55:48.697Z,54.20
2023-04-13T09:56:50.460Z,53.16
2023-04-13T09:57:48.705Z,53.12
2023-04-13T09:58:49.099Z,53.56
2023-04-13T09:59:48.769Z,52.97
2023-04-13T10:00:48.750Z,53.41
2023-04-13T10:01:48.851Z,52.82
2023-04-13T10:02:49.200Z,52.49
2023-04-13T10:03:49.120Z,52.57
2023-04-13T10:04:48.906Z,52.31
2023-04-13T10:06:48.343Z,52.28
2023-04-13T10:07:49.680Z,53.20
2023-04-13T10:08:48.885Z,52.25
2023-04-13T10:09:48.926Z,52.58
2023-04-13T10:10:49.633Z,53.08
2023-04-13T10:11:49.527Z,53.93
2023-04-13T10:12:48.960Z,53.58
2023-04-13T10:13:49.088Z,53.08
2023-04-13T10:14:50.642Z,53.36
2023-04-13T10:15:51.981Z,52.30
2023-04-13T10:16:49.109Z,51.76
2023-04-13T10:17:49.141Z,51.63
2023-04-13T10:18:49.073Z,50.84
2023-04-13T10:19:49.085Z,52.89
2023-04-13T10:20:49.586Z,53.53
2023-04-13T10:21:50.337Z,52.53
2023-04-13T10:22:49.584Z,52.30
2023-04-13T10:23:49.065Z,52.45
2023-04-13T10:24:49.091Z,52.27
2023-04-13T10:25:50.201Z,51.80
2023-04-13T10:26:49.509Z,51.86
2023-04-13T10:27:50.166Z,53.03
2023-04-13T10:28:49.582Z,52.95
2023-04-13T10:29:50.090Z,53.43
2023-04-13T10:30:49.723Z,53.88
2023-04-13T10:31:49.853Z,53.77
2023-04-13T10:32:49.869Z,53.75
2023-04-13T10:33:50.078Z,53.91
2023-04-13T10:34:50.100Z,54.51
2023-04-13T10:35:49.981Z,54.38
2023-04-13T10:36:50.031Z,54.62
2023-04-13T10:37:50.576Z,54.50
2023-04-13T10:38:50.152Z,54.73
2023-04-13T10:39:50.232Z,54.83
2023-04-13T10:40:50.273Z,55.39
2023-04-13T10:41:51.348Z,55.42
2023-04-13T10:42:53.105Z,54.66
2023-04-13T10:43:50.626Z,54.31
2023-04-13T10:44:50.594Z,54.66
2023-04-13T10:45:50.553Z,54.84
2023-04-13T10:46:50.626Z,55.52
2023-04-13T10:47:51.174Z,55.34
2023-04-13T10:48:50.681Z,55.54
2023-04-13T10:49:51.078Z,55.88
2023-04-13T10:50:50.776Z,55.77
2023-04-13T10:51:51.816Z,55.67
2023-04-13T10:52:50.876Z,56.84
2023-04-13T10:53:51.077Z,57.18
2023-04-13T10:54:50.966Z,57.44
2023-04-13T10:55:50.997Z,57.86
2023-04-13T10:56:51.027Z,57.03
2023-04-13T10:57:51.072Z,56.18
2023-04-13T10:58:51.079Z,56.37
2023-04-13T10:59:57.031Z,56.98
2023-04-13T11:00:51.092Z,56.60
2023-04-13T11:01:51.156Z,56.93
2023-04-13T11:02:51.684Z,54.84
2023-04-13T11:04:03.725Z,54.96
2023-04-13T11:04:51.276Z,55.33
2023-04-13T11:05:51.589Z,55.40
2023-04-13T11:06:51.199Z,56.62
2023-04-13T11:07:55.082Z,56.61
2023-04-13T11:08:51.266Z,56.45
2023-04-13T11:09:51.338Z,56.97
2023-04-13T11:10:52.001Z,56.86
2023-04-13T11:11:52.045Z,57.28
2023-04-13T11:12:51.624Z,57.39
2023-04-13T11:13:51.536Z,56.95
2023-04-13T11:14:51.554Z,56.22
2023-04-13T11:15:51.598Z,56.56
2023-04-13T11:16:58.381Z,56.36
2023-04-13T11:17:51.636Z,55.94
2023-04-13T11:18:51.639Z,56.16
2023-04-13T11:19:51.664Z,55.97
2023-04-13T11:20:51.681Z,56.07
2023-04-13T11:21:52.111Z,54.86
2023-04-13T11:22:52.083Z,56.10
2023-04-13T11:23:51.791Z,56.43
2023-04-13T11:24:52.084Z,57.16
2023-04-13T11:25:51.869Z,57.24
2023-04-13T11:26:51.876Z,53.97
2023-04-13T11:27:52.084Z,53.08
2023-04-13T11:28:52.010Z,53.67
2023-04-13T11:29:52.026Z,53.25
2023-04-13T11:30:52.043Z,52.59
2023-04-13T11:31:52.149Z,52.58
2023-04-13T11:32:52.133Z,53.35
2023-04-13T11:33:52.162Z,52.67
2023-04-13T11:34:52.584Z,52.74
2023-04-13T11:35:52.240Z,52.48
2023-04-13T11:36:52.288Z,53.58
2023-04-13T11:37:52.617Z,53.36
2023-04-13T11:38:52.377Z,53.21
2023-04-13T11:39:52.415Z,53.19
2023-04-13T11:40:58.861Z,53.70
2023-04-13T11:41:52.503Z,54.80
2023-04-13T11:42:52.544Z,56.11
2023-04-13T11:43:52.586Z,56.87
2023-04-13T11:44:52.838Z,57.28
2023-04-13T11:45:52.827Z,57.16
2023-04-13T11:46:53.212Z,57.46
2023-04-13T11:47:52.977Z,58.71
2023-04-13T11:48:53.001Z,59.51
2023-04-13T11:49:53.086Z,59.19
2023-04-13T11:50:53.159Z,59.83
2023-04-13T11:51:53.588Z,61.52
2023-04-13T11:52:53.303Z,62.05
2023-04-13T11:53:53.409Z,63.12
2023-04-13T11:54:53.597Z,63.85
2023-04-13T11:55:53.981Z,64.29
2023-04-13T11:56:54.089Z,64.15
2023-04-13T11:57:53.637Z,64.06
2023-04-13T11:58:53.695Z,64.69
2023-04-13T11:59:53.754Z,63.76
2023-04-13T12:00:53.818Z,63.57
2023-04-13T12:02:02.022Z,64.28
2023-04-13T12:04:07.927Z,64.33
2023-04-13T12:04:54.159Z,64.69
2023-04-13T12:05:54.313Z,64.59
2023-04-13T12:06:54.349Z,65.18
2023-04-13T12:07:54.853Z,64.98
2023-04-13T12:08:57.720Z,64.96
2023-04-13T12:09:56.671Z,65.03
2023-04-13T12:11:15.460Z,65.28
2023-04-13T12:12:16.255Z,65.35
2023-04-13T12:12:56.914Z,65.20
2023-04-13T12:15:04.739Z,64.97
2023-04-13T12:17:04.044Z,64.51
2023-04-13T12:17:57.976Z,65.23
2023-04-13T12:18:55.268Z,66.11
2023-04-13T12:19:56.942Z,66.32
2023-04-13T12:20:54.687Z,66.53
2023-04-13T12:21:55.851Z,65.48
2023-04-13T12:23:03.047Z,64.77
2023-04-13T12:23:55.158Z,65.29
2023-04-13T12:24:56.645Z,65.49
2023-04-13T12:25:55.155Z,66.04
2023-04-13T12:27:16.339Z,66.81
2023-04-13T12:27:55.000Z,66.90
2023-04-13T12:28:55.099Z,66.91
2023-04-13T12:29:55.232Z,66.61
2023-04-13T12:30:55.126Z,65.52
2023-04-13T12:31:55.092Z,65.54
2023-04-13T12:32:55.146Z,65.51
2023-04-13T12:33:55.140Z,65.00
2023-04-13T12:34:55.075Z,64.45
2023-04-13T12:35:55.102Z,64.39
2023-04-13T12:36:55.094Z,65.30
2023-04-13T12:37:56.113Z,65.36
2023-04-13T12:38:55.597Z,65.09
2023-04-13T12:39:55.203Z,65.13
2023-04-13T12:40:55.161Z,65.59
2023-04-13T12:41:55.189Z,64.96
2023-04-13T12:42:55.201Z,65.18
2023-04-13T12:43:55.232Z,65.62
2023-04-13T12:44:55.279Z,65.61
2023-04-13T12:45:55.264Z,65.45
2023-04-13T12:46:55.396Z,65.33
2023-04-13T12:47:55.351Z,65.46
2023-04-13T12:48:55.598Z,65.30
2023-04-13T12:49:55.456Z,65.12
2023-04-13T12:50:55.501Z,64.93
2023-04-13T12:51:55.561Z,64.92
2023-04-13T12:52:55.987Z,65.78
2023-04-13T12:53:55.630Z,65.03
2023-04-13T12:54:55.659Z,64.56
2023-04-13T12:55:55.711Z,63.77
2023-04-13T12:56:56.280Z,63.73
2023-04-13T12:57:55.846Z,63.72
2023-04-13T12:58:56.460Z,63.80